Hallwood, California
Current Conditions -  °F | °C
As of 4:58 AM on Wednesday 22 Oct 2014 (Local Time) from KBAB Reporting Station
Clear Clear  
Wind Chill: 52°   Ceiling: Unl
Heat Index: 52°   Visibility: 10mi
Dew Point: 46°   Wind: 1mph
Humidity: 81%   Direction: 100°E
Pressure: 30.02"   Gusts: NA
Location:  39.1912°N, 121.489°W
Report Text: KBAB 221158Z AUTO 10001KT 10SM CLR 11/08 A3002 RMK AO2 CIG 190 RWY15 SLP242 T01100078 10121 20091 55002 $
Loading
Personal Weather Stations






























Interactive Weather Map
Tropical Storm Tracking
New forecast layout! Learn more

10-Day Weather Forecast

Advertisements
Track Severe Weather on mobile